sensor_id;sensor_type;location;lat;lon;timestamp;P1;durP1;ratioP1;P2;durP2;ratioP2
45792;SDS011;31495;42.740;22.908;2023-03-08T00:00:18;17.95;;;8.00;;
45792;SDS011;31495;42.740;22.908;2023-03-08T00:01:19;17.38;;;7.72;;
45792;SDS011;31495;42.740;22.908;2023-03-08T00:02:22;16.15;;;7.80;;
45792;SDS011;31495;42.740;22.908;2023-03-08T00:03:22;14.82;;;7.22;;
45792;SDS011;31495;42.740;22.908;2023-03-08T00:04:21;16.20;;;8.23;;
45792;SDS011;31495;42.740;22.908;2023-03-08T00:05:20;10.70;;;6.35;;
45792;SDS011;31495;42.740;22.908;2023-03-08T00:06:20;9.98;;;4.78;;
45792;SDS011;31495;42.740;22.908;2023-03-08T00:07:21;8.32;;;4.00;;
45792;SDS011;31495;42.740;22.908;2023-03-08T00:08:21;7.85;;;3.67;;
45792;SDS011;31495;42.740;22.908;2023-03-08T00:09:20;9.63;;;4.30;;
45792;SDS011;31495;42.740;22.908;2023-03-08T00:10:20;9.85;;;4.43;;
45792;SDS011;31495;42.740;22.908;2023-03-08T00:11:20;9.30;;;4.70;;
45792;SDS011;31495;42.740;22.908;2023-03-08T00:12:20;10.90;;;4.38;;
45792;SDS011;31495;42.740;22.908;2023-03-08T00:13:21;12.98;;;3.90;;
45792;SDS011;31495;42.740;22.908;2023-03-08T00:14:20;7.85;;;3.55;;
45792;SDS011;31495;42.740;22.908;2023-03-08T00:15:20;6.32;;;3.50;;
45792;SDS011;31495;42.740;22.908;2023-03-08T00:16:20;6.97;;;3.47;;
45792;SDS011;31495;42.740;22.908;2023-03-08T00:17:20;6.00;;;2.83;;
45792;SDS011;31495;42.740;22.908;2023-03-08T00:18:19;9.00;;;4.28;;
45792;SDS011;31495;42.740;22.908;2023-03-08T00:19:19;8.05;;;3.78;;
45792;SDS011;31495;42.740;22.908;2023-03-08T00:20:18;9.63;;;3.42;;
45792;SDS011;31495;42.740;22.908;2023-03-08T00:21:17;9.55;;;5.22;;
45792;SDS011;31495;42.740;22.908;2023-03-08T00:22:17;8.85;;;5.15;;
45792;SDS011;31495;42.740;22.908;2023-03-08T00:23:16;12.95;;;5.85;;
45792;SDS011;31495;42.740;22.908;2023-03-08T00:24:16;15.63;;;8.65;;
45792;SDS011;31495;42.740;22.908;2023-03-08T00:25:17;15.02;;;7.97;;
45792;SDS011;31495;42.740;22.908;2023-03-08T00:26:17;17.55;;;6.55;;
45792;SDS011;31495;42.740;22.908;2023-03-08T00:27:16;16.35;;;8.07;;
45792;SDS011;31495;42.740;22.908;2023-03-08T00:28:16;17.67;;;9.25;;
45792;SDS011;31495;42.740;22.908;2023-03-08T00:29:15;23.77;;;8.32;;
45792;SDS011;31495;42.740;22.908;2023-03-08T00:30:15;18.33;;;8.85;;
45792;SDS011;31495;42.740;22.908;2023-03-08T00:31:15;21.27;;;9.35;;
45792;SDS011;31495;42.740;22.908;2023-03-08T00:32:14;19.13;;;9.27;;
45792;SDS011;31495;42.740;22.908;2023-03-08T00:44:36;12.45;;;6.47;;
45792;SDS011;31495;42.740;22.908;2023-03-08T00:47:31;15.85;;;6.43;;
45792;SDS011;31495;42.740;22.908;2023-03-08T00:52:23;12.25;;;5.95;;
45792;SDS011;31495;42.740;22.908;2023-03-08T00:55:18;12.00;;;5.03;;
45792;SDS011;31495;42.740;22.908;2023-03-08T00:56:36;12.52;;;4.13;;
45792;SDS011;31495;42.740;22.908;2023-03-08T00:58:14;6.05;;;4.30;;
45792;SDS011;31495;42.740;22.908;2023-03-08T01:03:06;10.32;;;5.22;;
45792;SDS011;31495;42.740;22.908;2023-03-08T01:09:35;9.25;;;4.03;;
45792;SDS011;31495;42.740;22.908;2023-03-08T01:14:10;16.05;;;8.40;;
45792;SDS011;31495;42.740;22.908;2023-03-08T01:15:47;12.10;;;6.85;;
45792;SDS011;31495;42.740;22.908;2023-03-08T01:18:24;11.15;;;5.50;;
45792;SDS011;31495;42.740;22.908;2023-03-08T01:19:24;13.57;;;6.18;;
45792;SDS011;31495;42.740;22.908;2023-03-08T01:20:43;13.15;;;5.40;;
45792;SDS011;31495;42.740;22.908;2023-03-08T01:22:01;14.05;;;6.45;;
45792;SDS011;31495;42.740;22.908;2023-03-08T01:23:19;12.95;;;5.97;;
45792;SDS011;31495;42.740;22.908;2023-03-08T01:24:56;13.07;;;5.15;;
45792;SDS011;31495;42.740;22.908;2023-03-08T01:26:33;15.68;;;7.15;;
45792;SDS011;31495;42.740;22.908;2023-03-08T01:29:50;16.70;;;6.40;;
45792;SDS011;31495;42.740;22.908;2023-03-08T01:33:04;12.88;;;6.38;;
45792;SDS011;31495;42.740;22.908;2023-03-08T01:37:22;15.23;;;7.95;;
45792;SDS011;31495;42.740;22.908;2023-03-08T01:41:54;23.08;;;10.63;;
45792;SDS011;31495;42.740;22.908;2023-03-08T01:49:47;17.92;;;8.75;;
45792;SDS011;31495;42.740;22.908;2023-03-08T01:52:47;14.60;;;8.75;;
45792;SDS011;31495;42.740;22.908;2023-03-08T01:53:49;16.67;;;9.38;;
45792;SDS011;31495;42.740;22.908;2023-03-08T01:55:26;16.52;;;8.85;;
45792;SDS011;31495;42.740;22.908;2023-03-08T02:33:21;8.30;;;3.38;;
45792;SDS011;31495;42.740;22.908;2023-03-08T02:34:22;7.10;;;3.03;;
45792;SDS011;31495;42.740;22.908;2023-03-08T02:35:40;7.38;;;3.70;;
45792;SDS011;31495;42.740;22.908;2023-03-08T02:41:31;10.20;;;4.45;;
45792;SDS011;31495;42.740;22.908;2023-03-08T02:46:23;10.13;;;4.10;;
45792;SDS011;31495;42.740;22.908;2023-03-08T02:51:33;10.18;;;4.53;;
45792;SDS011;31495;42.740;22.908;2023-03-08T02:52:52;7.32;;;3.95;;
45792;SDS011;31495;42.740;22.908;2023-03-08T02:54:10;6.65;;;3.75;;
45792;SDS011;31495;42.740;22.908;2023-03-08T02:57:24;8.23;;;3.47;;
45792;SDS011;31495;42.740;22.908;2023-03-08T02:58:24;9.52;;;3.83;;
45792;SDS011;31495;42.740;22.908;2023-03-08T02:59:23;9.90;;;3.33;;
45792;SDS011;31495;42.740;22.908;2023-03-08T03:00:24;5.68;;;3.17;;
45792;SDS011;31495;42.740;22.908;2023-03-08T03:04:38;7.28;;;2.42;;
45792;SDS011;31495;42.740;22.908;2023-03-08T03:05:56;11.93;;;4.82;;
45792;SDS011;31495;42.740;22.908;2023-03-08T03:08:53;8.30;;;4.25;;
45792;SDS011;31495;42.740;22.908;2023-03-08T03:10:12;8.02;;;3.92;;
45792;SDS011;31495;42.740;22.908;2023-03-08T03:17:25;6.97;;;3.55;;
45792;SDS011;31495;42.740;22.908;2023-03-08T03:18:44;8.13;;;3.55;;
45792;SDS011;31495;42.740;22.908;2023-03-08T03:23:17;9.98;;;4.28;;
45792;SDS011;31495;42.740;22.908;2023-03-08T03:29:08;39.17;;;17.00;;
45792;SDS011;31495;42.740;22.908;2023-03-08T03:30:07;26.33;;;12.18;;
45792;SDS011;31495;42.740;22.908;2023-03-08T03:31:08;28.33;;;12.13;;
45792;SDS011;31495;42.740;22.908;2023-03-08T03:32:10;26.60;;;13.88;;
45792;SDS011;31495;42.740;22.908;2023-03-08T03:33:10;32.63;;;16.48;;
45792;SDS011;31495;42.740;22.908;2023-03-08T03:34:09;31.08;;;14.55;;
45792;SDS011;31495;42.740;22.908;2023-03-08T03:35:09;27.15;;;14.07;;
45792;SDS011;31495;42.740;22.908;2023-03-08T03:36:09;21.85;;;12.40;;
45792;SDS011;31495;42.740;22.908;2023-03-08T03:37:11;20.65;;;11.23;;
45792;SDS011;31495;42.740;22.908;2023-03-08T03:38:10;17.35;;;9.45;;
45792;SDS011;31495;42.740;22.908;2023-03-08T03:39:09;15.57;;;8.55;;
45792;SDS011;31495;42.740;22.908;2023-03-08T03:40:09;20.13;;;9.23;;
45792;SDS011;31495;42.740;22.908;2023-03-08T03:41:10;20.65;;;9.85;;
45792;SDS011;31495;42.740;22.908;2023-03-08T03:42:12;16.80;;;9.35;;
45792;SDS011;31495;42.740;22.908;2023-03-08T03:43:11;19.98;;;9.98;;
45792;SDS011;31495;42.740;22.908;2023-03-08T03:44:10;14.23;;;7.85;;
45792;SDS011;31495;42.740;22.908;2023-03-08T03:45:10;20.08;;;9.95;;
45792;SDS011;31495;42.740;22.908;2023-03-08T03:46:10;40.28;;;19.98;;
45792;SDS011;31495;42.740;22.908;2023-03-08T03:47:11;72.13;;;36.22;;
45792;SDS011;31495;42.740;22.908;2023-03-08T03:48:11;83.13;;;39.55;;
45792;SDS011;31495;42.740;22.908;2023-03-08T03:49:10;79.82;;;38.42;;
45792;SDS011;31495;42.740;22.908;2023-03-08T03:50:10;77.38;;;38.05;;
45792;SDS011;31495;42.740;22.908;2023-03-08T03:51:17;78.35;;;38.13;;
45792;SDS011;31495;42.740;22.908;2023-03-08T03:52:17;59.67;;;32.22;;
45792;SDS011;31495;42.740;22.908;2023-03-08T03:53:17;61.05;;;28.92;;
45792;SDS011;31495;42.740;22.908;2023-03-08T03:54:16;55.08;;;28.25;;
45792;SDS011;31495;42.740;22.908;2023-03-08T03:55:16;65.40;;;32.00;;
45792;SDS011;31495;42.740;22.908;2023-03-08T03:56:20;47.25;;;26.40;;
45792;SDS011;31495;42.740;22.908;2023-03-08T03:57:21;45.53;;;22.30;;
45792;SDS011;31495;42.740;22.908;2023-03-08T03:58:21;34.72;;;15.88;;
45792;SDS011;31495;42.740;22.908;2023-03-08T03:59:20;13.98;;;7.10;;
45792;SDS011;31495;42.740;22.908;2023-03-08T04:00:19;16.67;;;7.82;;
45792;SDS011;31495;42.740;22.908;2023-03-08T04:01:21;16.63;;;8.63;;
45792;SDS011;31495;42.740;22.908;2023-03-08T04:02:23;15.48;;;9.43;;
45792;SDS011;31495;42.740;22.908;2023-03-08T04:03:22;16.02;;;8.15;;
45792;SDS011;31495;42.740;22.908;2023-03-08T04:04:22;21.88;;;10.02;;
45792;SDS011;31495;42.740;22.908;2023-03-08T04:05:22;18.98;;;10.27;;
45792;SDS011;31495;42.740;22.908;2023-03-08T04:06:22;24.13;;;11.43;;
45792;SDS011;31495;42.740;22.908;2023-03-08T04:07:23;22.90;;;10.50;;
45792;SDS011;31495;42.740;22.908;2023-03-08T04:08:22;42.60;;;19.48;;
45792;SDS011;31495;42.740;22.908;2023-03-08T04:09:22;98.82;;;35.60;;
45792;SDS011;31495;42.740;22.908;2023-03-08T04:10:21;98.47;;;39.78;;
45792;SDS011;31495;42.740;22.908;2023-03-08T04:11:22;100.85;;;35.25;;
45792;SDS011;31495;42.740;22.908;2023-03-08T04:12:23;73.18;;;28.27;;
45792;SDS011;31495;42.740;22.908;2023-03-08T04:13:22;62.78;;;22.52;;
45792;SDS011;31495;42.740;22.908;2023-03-08T04:14:22;49.05;;;20.25;;
45792;SDS011;31495;42.740;22.908;2023-03-08T04:15:21;47.45;;;18.27;;
45792;SDS011;31495;42.740;22.908;2023-03-08T04:16:22;51.88;;;21.80;;
45792;SDS011;31495;42.740;22.908;2023-03-08T04:17:24;59.05;;;23.00;;
45792;SDS011;31495;42.740;22.908;2023-03-08T04:18:23;60.72;;;23.52;;
45792;SDS011;31495;42.740;22.908;2023-03-08T04:19:23;61.22;;;22.08;;
45792;SDS011;31495;42.740;22.908;2023-03-08T04:20:22;65.43;;;23.52;;
45792;SDS011;31495;42.740;22.908;2023-03-08T04:21:23;57.70;;;21.40;;
45792;SDS011;31495;42.740;22.908;2023-03-08T04:22:23;53.50;;;18.50;;
45792;SDS011;31495;42.740;22.908;2023-03-08T04:23:22;37.25;;;15.27;;
45792;SDS011;31495;42.740;22.908;2023-03-08T04:24:22;44.92;;;15.10;;
45792;SDS011;31495;42.740;22.908;2023-03-08T04:25:21;48.10;;;16.15;;
45792;SDS011;31495;42.740;22.908;2023-03-08T04:26:21;56.70;;;17.67;;
45792;SDS011;31495;42.740;22.908;2023-03-08T04:27:21;47.25;;;17.50;;
45792;SDS011;31495;42.740;22.908;2023-03-08T04:28:21;43.75;;;14.98;;
45792;SDS011;31495;42.740;22.908;2023-03-08T04:29:20;35.78;;;13.57;;
45792;SDS011;31495;42.740;22.908;2023-03-08T04:30:20;36.10;;;15.18;;
45792;SDS011;31495;42.740;22.908;2023-03-08T04:31:20;41.03;;;15.27;;
45792;SDS011;31495;42.740;22.908;2023-03-08T04:32:21;27.67;;;10.48;;
45792;SDS011;31495;42.740;22.908;2023-03-08T04:33:21;24.77;;;8.40;;
45792;SDS011;31495;42.740;22.908;2023-03-08T04:34:22;20.75;;;8.10;;
45792;SDS011;31495;42.740;22.908;2023-03-08T04:35:21;20.02;;;10.05;;
45792;SDS011;31495;42.740;22.908;2023-03-08T04:36:21;19.75;;;7.07;;
45792;SDS011;31495;42.740;22.908;2023-03-08T04:37:21;18.75;;;6.45;;
45792;SDS011;31495;42.740;22.908;2023-03-08T04:38:20;17.75;;;6.75;;
45792;SDS011;31495;42.740;22.908;2023-03-08T04:39:20;11.07;;;5.47;;
45792;SDS011;31495;42.740;22.908;2023-03-08T04:40:19;15.45;;;5.57;;
45792;SDS011;31495;42.740;22.908;2023-03-08T04:41:18;17.15;;;6.88;;
45792;SDS011;31495;42.740;22.908;2023-03-08T04:42:18;20.33;;;8.98;;
45792;SDS011;31495;42.740;22.908;2023-03-08T04:43:17;14.02;;;7.68;;
45792;SDS011;31495;42.740;22.908;2023-03-08T04:44:17;19.65;;;7.85;;
45792;SDS011;31495;42.740;22.908;2023-03-08T04:45:16;14.80;;;7.10;;
45792;SDS011;31495;42.740;22.908;2023-03-08T04:46:16;17.90;;;7.70;;
45792;SDS011;31495;42.740;22.908;2023-03-08T04:47:17;17.67;;;8.20;;
45792;SDS011;31495;42.740;22.908;2023-03-08T04:48:17;17.55;;;8.25;;
45792;SDS011;31495;42.740;22.908;2023-03-08T04:49:16;22.45;;;8.63;;
45792;SDS011;31495;42.740;22.908;2023-03-08T04:50:16;21.48;;;9.77;;
45792;SDS011;31495;42.740;22.908;2023-03-08T04:51:15;17.85;;;8.27;;
45792;SDS011;31495;42.740;22.908;2023-03-08T04:52:15;10.07;;;5.63;;
45792;SDS011;31495;42.740;22.908;2023-03-08T04:53:14;12.05;;;6.63;;
45792;SDS011;31495;42.740;22.908;2023-03-08T04:54:14;23.85;;;10.90;;
45792;SDS011;31495;42.740;22.908;2023-03-08T04:55:13;25.83;;;11.70;;
45792;SDS011;31495;42.740;22.908;2023-03-08T04:56:14;18.55;;;9.38;;
45792;SDS011;31495;42.740;22.908;2023-03-08T04:57:13;16.48;;;7.97;;
45792;SDS011;31495;42.740;22.908;2023-03-08T04:58:14;19.35;;;7.95;;
45792;SDS011;31495;42.740;22.908;2023-03-08T04:59:13;20.10;;;9.10;;
45792;SDS011;31495;42.740;22.908;2023-03-08T05:00:13;17.20;;;8.25;;
45792;SDS011;31495;42.740;22.908;2023-03-08T05:02:20;24.95;;;8.88;;
45792;SDS011;31495;42.740;22.908;2023-03-08T05:03:21;13.32;;;7.88;;
45792;SDS011;31495;42.740;22.908;2023-03-08T05:04:21;16.70;;;6.57;;
45792;SDS011;31495;42.740;22.908;2023-03-08T05:05:20;14.93;;;7.85;;
45792;SDS011;31495;42.740;22.908;2023-03-08T05:06:21;13.60;;;6.93;;
45792;SDS011;31495;42.740;22.908;2023-03-08T05:07:22;20.00;;;9.23;;
45792;SDS011;31495;42.740;22.908;2023-03-08T05:08:21;15.18;;;8.35;;
45792;SDS011;31495;42.740;22.908;2023-03-08T05:09:20;14.35;;;7.05;;
45792;SDS011;31495;42.740;22.908;2023-03-08T05:10:20;10.90;;;6.18;;
45792;SDS011;31495;42.740;22.908;2023-03-08T05:11:24;15.55;;;8.20;;
45792;SDS011;31495;42.740;22.908;2023-03-08T05:12:25;14.88;;;8.10;;
45792;SDS011;31495;42.740;22.908;2023-03-08T05:13:25;14.75;;;8.10;;
45792;SDS011;31495;42.740;22.908;2023-03-08T05:14:25;13.07;;;8.00;;
45792;SDS011;31495;42.740;22.908;2023-03-08T05:15:24;23.27;;;12.70;;
45792;SDS011;31495;42.740;22.908;2023-03-08T05:16:24;18.90;;;10.38;;
45792;SDS011;31495;42.740;22.908;2023-03-08T05:17:24;19.63;;;9.35;;
45792;SDS011;31495;42.740;22.908;2023-03-08T05:18:23;18.50;;;9.68;;
45792;SDS011;31495;42.740;22.908;2023-03-08T05:19:23;22.08;;;11.38;;
45792;SDS011;31495;42.740;22.908;2023-03-08T05:20:23;21.55;;;11.02;;
45792;SDS011;31495;42.740;22.908;2023-03-08T05:21:22;14.45;;;8.60;;
45792;SDS011;31495;42.740;22.908;2023-03-08T05:22:22;14.25;;;8.30;;
45792;SDS011;31495;42.740;22.908;2023-03-08T05:23:22;18.17;;;10.55;;
45792;SDS011;31495;42.740;22.908;2023-03-08T05:24:22;20.75;;;11.30;;
45792;SDS011;31495;42.740;22.908;2023-03-08T05:25:22;24.50;;;13.70;;
45792;SDS011;31495;42.740;22.908;2023-03-08T05:26:21;27.13;;;13.07;;
45792;SDS011;31495;42.740;22.908;2023-03-08T05:27:23;21.75;;;13.57;;
45792;SDS011;31495;42.740;22.908;2023-03-08T05:28:22;21.67;;;11.73;;
45792;SDS011;31495;42.740;22.908;2023-03-08T05:29:23;21.90;;;12.20;;
45792;SDS011;31495;42.740;22.908;2023-03-08T05:30:22;21.25;;;10.38;;
45792;SDS011;31495;42.740;22.908;2023-03-08T05:31:22;19.13;;;9.85;;
45792;SDS011;31495;42.740;22.908;2023-03-08T05:32:21;19.65;;;9.30;;
45792;SDS011;31495;42.740;22.908;2023-03-08T05:33:21;25.40;;;10.95;;
45792;SDS011;31495;42.740;22.908;2023-03-08T05:34:20;35.80;;;17.88;;
45792;SDS011;31495;42.740;22.908;2023-03-08T05:35:19;36.15;;;18.67;;
45792;SDS011;31495;42.740;22.908;2023-03-08T05:36:19;46.22;;;17.35;;
45792;SDS011;31495;42.740;22.908;2023-03-08T05:37:18;30.45;;;16.60;;
45792;SDS011;31495;42.740;22.908;2023-03-08T05:38:19;46.13;;;21.70;;
45792;SDS011;31495;42.740;22.908;2023-03-08T05:39:19;42.75;;;25.23;;
45792;SDS011;31495;42.740;22.908;2023-03-08T05:40:19;45.10;;;23.27;;
45792;SDS011;31495;42.740;22.908;2023-03-08T05:41:19;58.28;;;30.52;;
45792;SDS011;31495;42.740;22.908;2023-03-08T05:42:18;54.47;;;30.73;;
45792;SDS011;31495;42.740;22.908;2023-03-08T05:43:18;48.97;;;26.48;;
45792;SDS011;31495;42.740;22.908;2023-03-08T05:44:18;27.60;;;15.02;;
45792;SDS011;31495;42.740;22.908;2023-03-08T05:45:18;26.42;;;13.13;;
45792;SDS011;31495;42.740;22.908;2023-03-08T05:46:17;29.08;;;14.25;;
45792;SDS011;31495;42.740;22.908;2023-03-08T05:47:17;25.73;;;12.50;;
45792;SDS011;31495;42.740;22.908;2023-03-08T05:48:17;27.55;;;12.52;;
45792;SDS011;31495;42.740;22.908;2023-03-08T05:49:16;27.13;;;12.90;;
45792;SDS011;31495;42.740;22.908;2023-03-08T05:50:15;23.67;;;11.57;;
45792;SDS011;31495;42.740;22.908;2023-03-08T05:51:16;24.15;;;11.25;;
45792;SDS011;31495;42.740;22.908;2023-03-08T05:52:16;35.70;;;13.23;;
45792;SDS011;31495;42.740;22.908;2023-03-08T05:53:16;29.95;;;14.20;;
45792;SDS011;31495;42.740;22.908;2023-03-08T05:54:16;29.50;;;14.02;;
45792;SDS011;31495;42.740;22.908;2023-03-08T05:55:15;35.55;;;14.82;;
45792;SDS011;31495;42.740;22.908;2023-03-08T05:56:16;39.50;;;18.65;;
45792;SDS011;31495;42.740;22.908;2023-03-08T05:57:16;62.83;;;30.25;;
45792;SDS011;31495;42.740;22.908;2023-03-08T05:58:16;65.10;;;30.10;;
45792;SDS011;31495;42.740;22.908;2023-03-08T05:59:15;57.20;;;22.08;;
45792;SDS011;31495;42.740;22.908;2023-03-08T06:00:16;49.38;;;23.65;;
45792;SDS011;31495;42.740;22.908;2023-03-08T06:01:18;58.83;;;26.10;;
45792;SDS011;31495;42.740;22.908;2023-03-08T06:02:19;59.88;;;25.52;;
45792;SDS011;31495;42.740;22.908;2023-03-08T06:03:18;52.38;;;22.50;;
45792;SDS011;31495;42.740;22.908;2023-03-08T06:04:18;44.88;;;18.13;;
45792;SDS011;31495;42.740;22.908;2023-03-08T06:05:17;41.17;;;16.75;;
45792;SDS011;31495;42.740;22.908;2023-03-08T06:06:17;30.55;;;15.00;;
45792;SDS011;31495;42.740;22.908;2023-03-08T06:07:18;23.98;;;13.23;;
45792;SDS011;31495;42.740;22.908;2023-03-08T06:08:17;24.02;;;13.75;;
45792;SDS011;31495;42.740;22.908;2023-03-08T06:09:17;26.02;;;12.70;;
45792;SDS011;31495;42.740;22.908;2023-03-08T06:10:16;29.00;;;14.10;;
45792;SDS011;31495;42.740;22.908;2023-03-08T06:11:16;23.52;;;11.85;;
45792;SDS011;31495;42.740;22.908;2023-03-08T06:12:16;24.00;;;11.85;;
45792;SDS011;31495;42.740;22.908;2023-03-08T06:13:15;16.95;;;8.73;;
45792;SDS011;31495;42.740;22.908;2023-03-08T06:14:14;17.77;;;9.43;;
45792;SDS011;31495;42.740;22.908;2023-03-08T06:15:14;16.00;;;8.75;;
45792;SDS011;31495;42.740;22.908;2023-03-08T06:16:13;29.90;;;12.90;;
45792;SDS011;31495;42.740;22.908;2023-03-08T06:17:13;20.48;;;10.35;;
45792;SDS011;31495;42.740;22.908;2023-03-08T06:18:13;14.63;;;8.85;;
45792;SDS011;31495;42.740;22.908;2023-03-08T06:19:12;17.50;;;7.88;;
45792;SDS011;31495;42.740;22.908;2023-03-08T06:20:12;17.08;;;8.55;;
45792;SDS011;31495;42.740;22.908;2023-03-08T06:21:15;16.38;;;10.15;;
45792;SDS011;31495;42.740;22.908;2023-03-08T06:22:16;15.13;;;8.85;;
45792;SDS011;31495;42.740;22.908;2023-03-08T06:23:15;17.15;;;8.60;;
45792;SDS011;31495;42.740;22.908;2023-03-08T06:24:15;21.10;;;10.70;;
45792;SDS011;31495;42.740;22.908;2023-03-08T06:25:14;18.10;;;11.10;;
45792;SDS011;31495;42.740;22.908;2023-03-08T06:26:14;18.77;;;10.75;;
45792;SDS011;31495;42.740;22.908;2023-03-08T06:27:14;17.38;;;9.75;;
45792;SDS011;31495;42.740;22.908;2023-03-08T06:28:15;17.60;;;9.70;;
45792;SDS011;31495;42.740;22.908;2023-03-08T06:29:15;15.93;;;10.18;;
45792;SDS011;31495;42.740;22.908;2023-03-08T06:30:14;23.08;;;12.32;;
45792;SDS011;31495;42.740;22.908;2023-03-08T06:31:15;27.73;;;14.18;;
45792;SDS011;31495;42.740;22.908;2023-03-08T06:32:16;38.30;;;20.25;;
45792;SDS011;31495;42.740;22.908;2023-03-08T06:33:16;32.45;;;20.00;;
45792;SDS011;31495;42.740;22.908;2023-03-08T06:34:16;39.22;;;20.10;;
45792;SDS011;31495;42.740;22.908;2023-03-08T06:35:16;35.97;;;18.17;;
45792;SDS011;31495;42.740;22.908;2023-03-08T06:36:16;33.33;;;16.98;;
45792;SDS011;31495;42.740;22.908;2023-03-08T06:37:18;36.78;;;16.80;;
45792;SDS011;31495;42.740;22.908;2023-03-08T06:38:18;31.08;;;16.38;;
45792;SDS011;31495;42.740;22.908;2023-03-08T06:39:17;34.92;;;16.30;;
45792;SDS011;31495;42.740;22.908;2023-03-08T06:40:16;32.90;;;17.13;;
45792;SDS011;31495;42.740;22.908;2023-03-08T06:41:16;31.83;;;18.17;;
45792;SDS011;31495;42.740;22.908;2023-03-08T06:43:17;37.00;;;19.83;;
45792;SDS011;31495;42.740;22.908;2023-03-08T06:44:17;28.40;;;17.52;;
45792;SDS011;31495;42.740;22.908;2023-03-08T06:45:17;44.22;;;21.90;;
45792;SDS011;31495;42.740;22.908;2023-03-08T06:46:16;45.15;;;22.05;;
45792;SDS011;31495;42.740;22.908;2023-03-08T06:47:17;43.10;;;22.92;;
45792;SDS011;31495;42.740;22.908;2023-03-08T06:48:16;46.42;;;23.73;;
45792;SDS011;31495;42.740;22.908;2023-03-08T06:49:16;46.90;;;23.95;;
45792;SDS011;31495;42.740;22.908;2023-03-08T06:50:16;46.10;;;24.92;;
45792;SDS011;31495;42.740;22.908;2023-03-08T06:51:16;51.45;;;28.42;;
45792;SDS011;31495;42.740;22.908;2023-03-08T06:52:16;68.75;;;32.63;;
45792;SDS011;31495;42.740;22.908;2023-03-08T06:53:16;86.45;;;38.00;;
45792;SDS011;31495;42.740;22.908;2023-03-08T06:54:15;108.25;;;44.00;;
45792;SDS011;31495;42.740;22.908;2023-03-08T06:55:15;128.48;;;57.45;;
45792;SDS011;31495;42.740;22.908;2023-03-08T06:56:15;90.97;;;42.70;;
45792;SDS011;31495;42.740;22.908;2023-03-08T06:57:15;71.60;;;34.47;;
45792;SDS011;31495;42.740;22.908;2023-03-08T06:58:15;61.55;;;29.02;;
45792;SDS011;31495;42.740;22.908;2023-03-08T06:59:14;89.85;;;43.50;;
45792;SDS011;31495;42.740;22.908;2023-03-08T07:00:14;123.90;;;57.63;;
45792;SDS011;31495;42.740;22.908;2023-03-08T07:01:14;107.43;;;49.85;;
45792;SDS011;31495;42.740;22.908;2023-03-08T07:02:13;58.20;;;30.48;;
45792;SDS011;31495;42.740;22.908;2023-03-08T07:03:13;62.45;;;31.95;;
45792;SDS011;31495;42.740;22.908;2023-03-08T07:04:13;48.70;;;27.70;;
45792;SDS011;31495;42.740;22.908;2023-03-08T07:05:12;51.55;;;27.40;;
45792;SDS011;31495;42.740;22.908;2023-03-08T07:06:13;49.25;;;26.38;;
45792;SDS011;31495;42.740;22.908;2023-03-08T07:07:13;21.52;;;12.43;;
45792;SDS011;31495;42.740;22.908;2023-03-08T07:08:12;11.32;;;7.85;;
45792;SDS011;31495;42.740;22.908;2023-03-08T07:09:12;15.38;;;9.18;;
45792;SDS011;31495;42.740;22.908;2023-03-08T07:10:12;15.90;;;8.98;;
45792;SDS011;31495;42.740;22.908;2023-03-08T07:11:13;15.38;;;9.63;;
45792;SDS011;31495;42.740;22.908;2023-03-08T07:12:12;25.10;;;11.70;;
45792;SDS011;31495;42.740;22.908;2023-03-08T07:13:12;18.85;;;10.35;;
45792;SDS011;31495;42.740;22.908;2023-03-08T07:14:11;27.17;;;12.82;;
45792;SDS011;31495;42.740;22.908;2023-03-08T07:15:11;21.83;;;11.45;;
45792;SDS011;31495;42.740;22.908;2023-03-08T07:16:15;22.33;;;10.73;;
45792;SDS011;31495;42.740;22.908;2023-03-08T07:17:14;20.92;;;11.27;;
45792;SDS011;31495;42.740;22.908;2023-03-08T07:18:14;20.92;;;10.65;;
45792;SDS011;31495;42.740;22.908;2023-03-08T07:19:13;24.85;;;11.90;;
45792;SDS011;31495;42.740;22.908;2023-03-08T07:20:13;21.70;;;12.35;;
45792;SDS011;31495;42.740;22.908;2023-03-08T07:21:14;19.85;;;11.23;;
45792;SDS011;31495;42.740;22.908;2023-03-08T07:22:13;16.90;;;10.07;;
45792;SDS011;31495;42.740;22.908;2023-03-08T07:23:13;14.25;;;8.73;;
45792;SDS011;31495;42.740;22.908;2023-03-08T07:24:12;20.20;;;10.82;;
45792;SDS011;31495;42.740;22.908;2023-03-08T07:25:14;20.00;;;10.43;;
45792;SDS011;31495;42.740;22.908;2023-03-08T07:26:16;24.13;;;11.85;;
45792;SDS011;31495;42.740;22.908;2023-03-08T07:27:15;23.05;;;10.82;;
45792;SDS011;31495;42.740;22.908;2023-03-08T07:28:15;16.08;;;9.45;;
45792;SDS011;31495;42.740;22.908;2023-03-08T07:29:14;18.20;;;9.90;;
45792;SDS011;31495;42.740;22.908;2023-03-08T07:30:14;17.77;;;10.18;;
45792;SDS011;31495;42.740;22.908;2023-03-08T07:31:14;18.13;;;9.88;;
45792;SDS011;31495;42.740;22.908;2023-03-08T07:32:14;17.58;;;8.98;;
45792;SDS011;31495;42.740;22.908;2023-03-08T07:33:13;16.83;;;9.68;;
45792;SDS011;31495;42.740;22.908;2023-03-08T07:34:13;14.65;;;9.13;;
45792;SDS011;31495;42.740;22.908;2023-03-08T07:35:13;18.05;;;9.95;;
45792;SDS011;31495;42.740;22.908;2023-03-08T07:36:14;20.58;;;10.73;;
45792;SDS011;31495;42.740;22.908;2023-03-08T07:37:14;20.08;;;9.38;;
45792;SDS011;31495;42.740;22.908;2023-03-08T07:38:14;26.35;;;9.32;;
45792;SDS011;31495;42.740;22.908;2023-03-08T07:39:15;35.17;;;17.95;;
45792;SDS011;31495;42.740;22.908;2023-03-08T07:40:15;23.60;;;12.77;;
45792;SDS011;31495;42.740;22.908;2023-03-08T07:41:15;23.55;;;13.88;;
45792;SDS011;31495;42.740;22.908;2023-03-08T07:42:16;24.20;;;14.10;;
45792;SDS011;31495;42.740;22.908;2023-03-08T07:43:15;28.58;;;14.60;;
45792;SDS011;31495;42.740;22.908;2023-03-08T07:44:14;23.55;;;13.50;;
45792;SDS011;31495;42.740;22.908;2023-03-08T07:45:14;23.52;;;13.30;;
45792;SDS011;31495;42.740;22.908;2023-03-08T07:46:13;22.75;;;12.60;;
45792;SDS011;31495;42.740;22.908;2023-03-08T07:47:13;18.88;;;11.35;;
45792;SDS011;31495;42.740;22.908;2023-03-08T07:48:13;14.90;;;8.25;;
45792;SDS011;31495;42.740;22.908;2023-03-08T07:49:13;14.40;;;7.97;;
45792;SDS011;31495;42.740;22.908;2023-03-08T07:50:12;15.95;;;8.98;;
45792;SDS011;31495;42.740;22.908;2023-03-08T07:51:12;17.40;;;9.80;;
45792;SDS011;31495;42.740;22.908;2023-03-08T07:52:11;19.05;;;10.85;;
45792;SDS011;31495;42.740;22.908;2023-03-08T07:53:11;16.52;;;8.77;;
45792;SDS011;31495;42.740;22.908;2023-03-08T07:54:10;14.00;;;8.68;;
45792;SDS011;31495;42.740;22.908;2023-03-08T07:55:11;15.43;;;8.82;;
45792;SDS011;31495;42.740;22.908;2023-03-08T07:56:11;19.02;;;8.63;;
45792;SDS011;31495;42.740;22.908;2023-03-08T07:57:14;18.80;;;8.60;;
45792;SDS011;31495;42.740;22.908;2023-03-08T07:58:14;16.45;;;8.77;;
45792;SDS011;31495;42.740;22.908;2023-03-08T07:59:14;15.98;;;8.75;;
45792;SDS011;31495;42.740;22.908;2023-03-08T08:00:13;19.13;;;9.63;;
45792;SDS011;31495;42.740;22.908;2023-03-08T08:01:13;18.17;;;9.38;;
45792;SDS011;31495;42.740;22.908;2023-03-08T08:02:13;18.98;;;9.32;;